createdAt,value
2023-03-31T00:00:53.631Z,12.26
2023-03-31T00:03:25.033Z,12.25
2023-03-31T00:05:59.277Z,12.24
2023-03-31T00:08:30.312Z,12.17
2023-03-31T00:11:00.777Z,12.18
2023-03-31T00:13:29.800Z,12.19
2023-03-31T00:16:04.234Z,12.23
2023-03-31T00:18:31.862Z,12.20
2023-03-31T00:21:24.658Z,12.25
2023-03-31T00:23:58.348Z,12.32
2023-03-31T00:26:26.468Z,12.17
2023-03-31T00:28:54.448Z,12.13
2023-03-31T00:31:22.838Z,12.10
2023-03-31T00:33:50.956Z,12.18
2023-03-31T00:36:21.594Z,12.10
2023-03-31T00:38:49.390Z,12.08
2023-03-31T00:41:17.367Z,12.16
2023-03-31T00:44:06.692Z,12.24
2023-03-31T00:46:54.607Z,12.04
2023-03-31T00:49:28.048Z,11.96
2023-03-31T00:52:00.306Z,11.87
2023-03-31T00:54:29.165Z,11.95
2023-03-31T00:56:58.721Z,11.94
2023-03-31T00:59:30.499Z,11.89
2023-03-31T01:02:02.698Z,11.90
2023-03-31T01:04:38.872Z,11.75
2023-03-31T01:07:31.012Z,11.72
2023-03-31T01:10:01.605Z,11.72
2023-03-31T01:12:29.288Z,11.76
2023-03-31T01:14:56.917Z,11.77
2023-03-31T01:17:25.089Z,11.76
2023-03-31T01:20:14.701Z,11.80
2023-03-31T01:22:51.562Z,11.81
2023-03-31T01:25:24.661Z,11.82
2023-03-31T01:28:01.704Z,11.85
2023-03-31T01:30:50.368Z,11.83
2023-03-31T01:33:32.960Z,11.86
2023-03-31T01:36:29.226Z,11.91
2023-03-31T01:39:17.671Z,11.85
2023-03-31T01:42:12.562Z,11.70
2023-03-31T01:44:53.411Z,11.53
2023-03-31T01:47:30.100Z,11.36
2023-03-31T01:50:08.008Z,11.28
2023-03-31T01:53:04.879Z,11.19
2023-03-31T01:55:46.714Z,11.26
2023-03-31T01:58:26.797Z,11.18
2023-03-31T02:01:06.327Z,11.19
2023-03-31T02:03:49.677Z,11.00
2023-03-31T02:06:22.046Z,11.12
2023-03-31T02:08:58.605Z,10.99
2023-03-31T02:11:28.515Z,11.02
2023-03-31T02:13:57.871Z,11.07
2023-03-31T02:16:27.900Z,10.95
2023-03-31T02:19:02.468Z,10.98
2023-03-31T02:21:34.249Z,10.94
2023-03-31T02:24:06.918Z,10.82
2023-03-31T02:26:40.527Z,10.89
2023-03-31T02:29:08.201Z,10.92
2023-03-31T02:31:48.342Z,10.86
2023-03-31T02:34:16.193Z,10.91
2023-03-31T02:36:45.717Z,10.91
2023-03-31T02:39:19.968Z,10.82
2023-03-31T02:41:47.370Z,10.85
2023-03-31T02:44:17.198Z,10.90
2023-03-31T02:46:46.962Z,10.88
2023-03-31T02:49:16.279Z,10.89
2023-03-31T02:52:11.279Z,11.04
2023-03-31T02:55:09.863Z,11.13
2023-03-31T02:57:43.234Z,11.09
2023-03-31T03:00:48.323Z,11.01
2023-03-31T03:03:26.651Z,11.00
2023-03-31T03:06:13.664Z,10.94
2023-03-31T03:09:50.328Z,10.91
2023-03-31T03:12:25.321Z,11.00
2023-03-31T03:15:17.320Z,11.09
2023-03-31T03:17:46.807Z,10.98
2023-03-31T03:20:16.340Z,10.99
2023-03-31T03:22:43.796Z,10.94
2023-03-31T03:25:15.018Z,10.99
2023-03-31T03:27:42.932Z,11.09
2023-03-31T03:30:13.027Z,11.08
2023-03-31T03:32:41.802Z,11.11
2023-03-31T03:35:09.428Z,11.05
2023-03-31T03:37:37.092Z,11.12
2023-03-31T03:40:08.302Z,11.06
2023-03-31T03:42:36.062Z,11.07
2023-03-31T03:45:03.704Z,11.09
2023-03-31T03:47:31.229Z,11.13
2023-03-31T03:49:58.698Z,11.20
2023-03-31T03:52:26.226Z,11.15
2023-03-31T03:54:53.568Z,11.27
2023-03-31T03:57:21.111Z,11.33
2023-03-31T03:59:48.504Z,11.35
2023-03-31T04:02:16.051Z,11.29
2023-03-31T04:04:43.515Z,11.27
2023-03-31T04:07:10.952Z,11.40
2023-03-31T04:09:38.349Z,11.40
2023-03-31T04:12:05.886Z,11.28
2023-03-31T04:14:33.468Z,11.12
2023-03-31T04:17:02.721Z,11.03
2023-03-31T04:19:30.116Z,11.07
2023-03-31T04:22:03.108Z,11.04
2023-03-31T04:24:33.062Z,11.05
2023-03-31T04:27:03.085Z,11.07
2023-03-31T04:29:33.762Z,11.09
2023-03-31T04:32:01.603Z,11.15
2023-03-31T04:34:35.592Z,11.10
2023-03-31T04:37:04.197Z,11.09
2023-03-31T04:39:31.825Z,11.12
2023-03-31T04:42:00.659Z,11.10
2023-03-31T04:44:28.125Z,10.93
2023-03-31T04:46:56.111Z,11.01
2023-03-31T04:49:23.481Z,11.00
2023-03-31T04:51:51.127Z,11.02
2023-03-31T04:54:18.568Z,11.15
2023-03-31T04:56:46.569Z,11.21
2023-03-31T04:59:14.016Z,11.13
2023-03-31T05:01:45.135Z,11.09
2023-03-31T05:04:12.818Z,11.01
2023-03-31T05:06:40.348Z,11.06
2023-03-31T05:09:09.674Z,10.94
2023-03-31T05:11:38.403Z,10.99
2023-03-31T05:14:06.131Z,11.05
2023-03-31T05:16:34.118Z,11.04
2023-03-31T05:19:01.556Z,10.89
2023-03-31T05:21:30.672Z,10.86
2023-03-31T05:23:58.220Z,10.91
2023-03-31T05:26:26.136Z,10.99
2023-03-31T05:28:54.166Z,10.99
2023-03-31T05:31:21.632Z,11.08
2023-03-31T05:33:49.072Z,11.08
2023-03-31T05:36:17.959Z,10.93
2023-03-31T05:38:45.876Z,10.92
2023-03-31T05:41:13.226Z,11.02
2023-03-31T05:43:40.711Z,11.01
2023-03-31T05:46:08.578Z,10.95
2023-03-31T05:48:38.107Z,10.98
2023-03-31T05:51:06.138Z,11.01
2023-03-31T05:53:34.209Z,10.96
2023-03-31T05:56:05.726Z,10.96
2023-03-31T05:58:37.319Z,11.00
2023-03-31T06:01:10.842Z,11.06
2023-03-31T06:03:41.496Z,11.16
2023-03-31T06:06:10.485Z,11.22
2023-03-31T06:08:38.054Z,11.13
2023-03-31T06:11:10.998Z,11.08
2023-03-31T06:13:39.384Z,11.20
2023-03-31T06:16:08.047Z,11.20
2023-03-31T06:18:36.465Z,11.26
2023-03-31T06:21:04.852Z,11.31
2023-03-31T06:23:33.246Z,11.36
2023-03-31T06:26:03.385Z,11.37
2023-03-31T06:28:31.237Z,11.31
2023-03-31T06:31:08.643Z,11.28
2023-03-31T06:33:36.392Z,11.26
2023-03-31T06:36:05.688Z,11.31
2023-03-31T06:38:35.090Z,11.33
2023-03-31T06:41:02.956Z,11.26
2023-03-31T06:43:30.687Z,11.38
2023-03-31T06:45:58.480Z,11.44
2023-03-31T06:48:26.016Z,11.52
2023-03-31T06:50:54.908Z,11.57
2023-03-31T06:53:22.367Z,11.59
2023-03-31T06:55:49.731Z,11.58
2023-03-31T06:58:16.998Z,11.64
2023-03-31T07:00:46.128Z,11.69
2023-03-31T07:03:14.773Z,11.65
2023-03-31T07:05:42.202Z,11.80
2023-03-31T07:08:09.473Z,11.83
2023-03-31T07:10:36.754Z,12.03
2023-03-31T07:13:05.605Z,11.88
2023-03-31T07:15:33.264Z,11.91
2023-03-31T07:18:03.382Z,11.84
2023-03-31T07:20:31.041Z,11.90
2023-03-31T07:22:58.375Z,11.86
2023-03-31T07:25:25.924Z,11.89
2023-03-31T07:27:53.599Z,11.76
2023-03-31T07:30:21.902Z,11.83
2023-03-31T07:32:51.239Z,11.96
2023-03-31T07:35:19.667Z,11.87
2023-03-31T07:37:49.072Z,11.91
2023-03-31T07:40:20.860Z,11.93
2023-03-31T07:42:49.529Z,11.92
2023-03-31T07:45:17.402Z,11.88
2023-03-31T07:47:46.533Z,11.86
2023-03-31T07:50:16.549Z,11.79
2023-03-31T07:52:46.912Z,11.91
2023-03-31T07:55:15.775Z,11.82
2023-03-31T07:57:43.639Z,11.75
2023-03-31T08:00:12.627Z,11.84
2023-03-31T08:02:43.117Z,11.93
2023-03-31T08:05:15.877Z,11.98
2023-03-31T08:07:46.053Z,11.99
2023-03-31T08:10:18.944Z,11.93
2023-03-31T08:12:46.666Z,11.94
2023-03-31T08:15:14.285Z,11.96
2023-03-31T08:17:41.942Z,12.04
2023-03-31T08:20:12.790Z,12.08
2023-03-31T08:22:40.959Z,12.11
2023-03-31T08:25:09.486Z,12.14
2023-03-31T08:27:40.210Z,12.10
2023-03-31T08:30:10.226Z,12.08
2023-03-31T08:32:37.698Z,12.04
2023-03-31T08:35:05.708Z,12.05
2023-03-31T08:37:33.324Z,12.02
2023-03-31T08:40:00.858Z,12.04
2023-03-31T08:42:44.901Z,12.12
2023-03-31T08:45:47.764Z,12.28
2023-03-31T08:48:22.165Z,12.29
2023-03-31T08:50:56.527Z,12.20
2023-03-31T08:53:31.090Z,12.25
2023-03-31T08:55:59.313Z,12.26
2023-03-31T08:58:39.973Z,12.34
2023-03-31T09:01:17.178Z,12.26
2023-03-31T09:03:59.954Z,12.16
2023-03-31T09:06:33.933Z,12.29
2023-03-31T09:09:03.670Z,12.31
2023-03-31T09:11:44.410Z,12.30
2023-03-31T09:14:37.040Z,12.39
2023-03-31T09:17:19.087Z,12.44
2023-03-31T09:19:52.670Z,12.48
2023-03-31T09:22:29.232Z,12.53
2023-03-31T09:25:12.300Z,12.65
2023-03-31T09:27:43.740Z,12.58
2023-03-31T09:30:21.072Z,12.63
2023-03-31T09:32:52.625Z,12.74
2023-03-31T09:35:23.637Z,12.63
2023-03-31T09:37:52.259Z,12.70
2023-03-31T09:40:22.817Z,12.70
2023-03-31T09:43:07.090Z,12.84
2023-03-31T09:45:35.856Z,12.86
2023-03-31T09:48:16.696Z,12.87
2023-03-31T09:50:51.905Z,12.94
2023-03-31T09:53:28.047Z,12.94
2023-03-31T09:56:01.920Z,13.01
2023-03-31T09:58:29.421Z,12.82
2023-03-31T10:01:09.798Z,12.78
2023-03-31T10:04:08.236Z,13.04
2023-03-31T10:06:42.550Z,13.09
2023-03-31T10:09:11.506Z,13.10
2023-03-31T10:11:40.134Z,13.02
2023-03-31T10:14:14.587Z,13.08
2023-03-31T10:16:50.486Z,13.20
2023-03-31T10:19:31.636Z,13.18
2023-03-31T10:22:26.431Z,13.19
2023-03-31T10:24:54.875Z,13.33
2023-03-31T10:27:30.961Z,13.50
2023-03-31T10:30:01.843Z,13.64
2023-03-31T10:32:35.386Z,13.69
2023-03-31T10:35:23.005Z,13.57
2023-03-31T10:37:54.783Z,13.33
2023-03-31T10:40:25.718Z,13.39
2023-03-31T10:43:03.097Z,13.41
2023-03-31T10:45:38.355Z,13.46
2023-03-31T10:48:24.606Z,13.60
2023-03-31T10:50:52.369Z,13.73
2023-03-31T10:53:20.602Z,13.70
2023-03-31T10:56:03.118Z,13.64
2023-03-31T10:59:06.638Z,13.84
2023-03-31T11:01:45.656Z,13.67
2023-03-31T11:04:19.028Z,14.01
2023-03-31T11:07:04.624Z,13.96
2023-03-31T11:09:42.517Z,14.08
2023-03-31T11:12:31.672Z,13.88
2023-03-31T11:15:14.456Z,13.96
2023-03-31T11:18:09.364Z,14.05
2023-03-31T11:20:49.804Z,14.23
2023-03-31T11:23:53.641Z,14.38
2023-03-31T11:26:38.277Z,14.57
2023-03-31T11:29:16.629Z,14.65
2023-03-31T11:31:55.854Z,14.58
2023-03-31T11:34:29.733Z,14.46
2023-03-31T11:37:15.470Z,14.67
2023-03-31T11:40:02.990Z,14.62
2023-03-31T11:42:39.247Z,14.60
2023-03-31T11:45:28.532Z,14.74
2023-03-31T11:48:05.488Z,14.54
2023-03-31T11:50:39.891Z,14.61
2023-03-31T11:53:18.976Z,14.91
2023-03-31T11:55:50.680Z,14.82
2023-03-31T11:58:30.101Z,15.03
2023-03-31T12:01:06.129Z,15.45
2023-03-31T12:03:38.767Z,15.43
2023-03-31T12:06:17.387Z,15.37
2023-03-31T12:09:13.030Z,15.19
2023-03-31T12:11:53.746Z,15.14
2023-03-31T12:14:31.213Z,15.51
2023-03-31T12:17:05.377Z,15.36
2023-03-31T12:19:44.864Z,15.49
2023-03-31T12:22:19.871Z,15.35
2023-03-31T12:24:47.215Z,15.50
2023-03-31T12:27:31.891Z,15.81
2023-03-31T12:30:05.330Z,15.74
2023-03-31T12:32:38.742Z,15.71
2023-03-31T12:35:27.405Z,15.85
2023-03-31T12:38:13.473Z,15.51
2023-03-31T12:40:51.724Z,15.61
2023-03-31T12:43:21.813Z,15.69
2023-03-31T12:46:22.219Z,15.91
2023-03-31T12:49:24.988Z,15.92
2023-03-31T12:52:07.275Z,15.90
2023-03-31T12:54:53.470Z,15.93
2023-03-31T12:57:22.189Z,15.82
2023-03-31T13:00:10.469Z,15.80
2023-03-31T13:02:38.632Z,15.71
2023-03-31T13:05:40.949Z,15.80
2023-03-31T13:08:09.410Z,15.71
2023-03-31T13:10:58.411Z,15.73
2023-03-31T13:13:26.800Z,15.71
2023-03-31T13:15:58.314Z,15.76
2023-03-31T13:18:25.838Z,15.86
2023-03-31T13:21:05.442Z,15.90
2023-03-31T13:23:37.411Z,15.96
2023-03-31T13:26:06.902Z,16.05
2023-03-31T13:28:42.762Z,16.06
2023-03-31T13:31:16.426Z,16.11
2023-03-31T13:33:47.003Z,16.18
2023-03-31T13:36:32.822Z,16.12
2023-03-31T13:39:11.135Z,16.12
2023-03-31T13:42:17.379Z,16.05
2023-03-31T13:45:10.956Z,15.83
2023-03-31T13:47:49.439Z,15.98
2023-03-31T13:51:02.775Z,16.00
2023-03-31T13:53:55.086Z,15.69
2023-03-31T13:56:52.379Z,15.65
2023-03-31T13:59:55.999Z,15.70
2023-03-31T14:02:44.675Z,15.77
2023-03-31T14:05:30.365Z,15.86
2023-03-31T14:08:14.988Z,15.83
2023-03-31T14:10:49.849Z,15.79
2023-03-31T14:13:25.324Z,15.74
2023-03-31T14:16:01.414Z,15.82
2023-03-31T14:18:33.868Z,15.75
2023-03-31T14:21:33.858Z,15.79
2023-03-31T14:24:15.072Z,15.57
2023-03-31T14:27:20.252Z,15.65
2023-03-31T14:30:08.299Z,15.73
2023-03-31T14:32:38.609Z,15.75
2023-03-31T14:35:32.286Z,15.71
2023-03-31T14:38:03.978Z,15.66
2023-03-31T14:40:31.259Z,15.57
2023-03-31T14:42:58.954Z,15.48
2023-03-31T14:45:31.551Z,15.56
2023-03-31T14:48:04.744Z,15.58
2023-03-31T14:50:36.760Z,15.61
2023-03-31T14:53:04.946Z,15.63
2023-03-31T14:55:49.758Z,15.60
2023-03-31T14:58:30.752Z,15.63
2023-03-31T15:00:59.422Z,15.52
2023-03-31T15:03:27.742Z,15.53
2023-03-31T15:06:00.811Z,15.52
2023-03-31T15:08:30.595Z,15.49
2023-03-31T15:14:01.236Z,15.42
2023-03-31T15:16:43.208Z,15.46
2023-03-31T15:19:25.409Z,15.48
2023-03-31T15:22:10.744Z,15.43
2023-03-31T15:24:38.864Z,15.30
2023-03-31T15:27:14.872Z,15.30
2023-03-31T15:29:57.703Z,15.24
2023-03-31T15:32:31.212Z,15.18
2023-03-31T15:35:11.088Z,15.20
2023-03-31T15:37:47.202Z,15.17
2023-03-31T15:40:32.652Z,15.08
2023-03-31T15:43:24.524Z,15.08
2023-03-31T15:45:55.059Z,15.04
2023-03-31T15:48:28.779Z,15.11
2023-03-31T15:51:36.238Z,15.04
2023-03-31T15:54:03.983Z,15.11
2023-03-31T15:56:36.330Z,15.06
2023-03-31T15:59:05.621Z,15.10
2023-03-31T16:01:42.048Z,15.06
2023-03-31T16:04:12.867Z,15.05
2023-03-31T16:06:52.713Z,15.01
2023-03-31T16:09:41.417Z,14.99
2023-03-31T16:12:23.114Z,14.97
2023-03-31T16:14:53.846Z,15.03
2023-03-31T16:17:34.870Z,14.95
2023-03-31T16:20:09.609Z,15.02
2023-03-31T16:22:43.377Z,14.98
2023-03-31T16:25:14.852Z,14.86
2023-03-31T16:27:46.890Z,14.88
2023-03-31T16:30:17.734Z,14.83
2023-03-31T16:33:05.693Z,14.87
2023-03-31T16:35:37.009Z,14.85
2023-03-31T16:38:06.707Z,14.70
2023-03-31T16:40:39.830Z,14.75
2023-03-31T16:43:17.389Z,14.72
2023-03-31T16:45:52.944Z,14.63
2023-03-31T16:48:22.842Z,14.63
2023-03-31T16:50:53.201Z,14.61
2023-03-31T16:53:23.891Z,14.66
2023-03-31T16:55:51.621Z,14.78
2023-03-31T16:58:19.177Z,14.66
2023-03-31T17:00:47.783Z,14.59
2023-03-31T17:03:16.603Z,14.56
2023-03-31T17:05:46.574Z,14.63
2023-03-31T17:08:15.774Z,14.62
2023-03-31T17:10:52.095Z,14.68
2023-03-31T17:13:20.633Z,14.63
2023-03-31T17:15:49.492Z,14.63
2023-03-31T17:18:17.348Z,14.57
2023-03-31T17:20:44.873Z,14.49
2023-03-31T17:23:12.899Z,14.43
2023-03-31T17:25:47.520Z,14.33
2023-03-31T17:28:14.942Z,14.30
2023-03-31T17:30:44.330Z,14.26
2023-03-31T17:33:11.807Z,14.12
2023-03-31T17:35:39.259Z,14.04
2023-03-31T17:38:06.672Z,14.13
2023-03-31T17:40:34.699Z,14.09
2023-03-31T17:43:02.911Z,14.04
2023-03-31T17:45:32.204Z,13.98
2023-03-31T17:48:00.305Z,13.96
2023-03-31T17:50:28.260Z,13.97
2023-03-31T17:52:55.704Z,13.92
2023-03-31T17:55:23.574Z,13.74
2023-03-31T17:57:51.453Z,13.75
2023-03-31T18:00:19.704Z,13.78
2023-03-31T18:02:47.075Z,13.71
2023-03-31T18:05:29.398Z,13.61
2023-03-31T18:07:56.887Z,13.69
2023-03-31T18:10:26.517Z,13.66
2023-03-31T18:12:55.018Z,13.57
2023-03-31T18:15:22.762Z,13.52
2023-03-31T18:17:50.732Z,13.51
2023-03-31T18:20:18.286Z,13.44
2023-03-31T18:22:45.783Z,13.37
2023-03-31T18:25:13.241Z,13.38
2023-03-31T18:27:40.729Z,13.29
2023-03-31T18:30:08.673Z,13.25
2023-03-31T18:32:36.781Z,13.25
2023-03-31T18:35:05.722Z,13.34
2023-03-31T18:37:33.975Z,13.34
2023-03-31T18:40:01.611Z,13.32
2023-03-31T18:42:29.077Z,13.18
2023-03-31T18:44:56.750Z,13.13
2023-03-31T18:47:24.605Z,12.95
2023-03-31T18:49:55.626Z,12.99
2023-03-31T18:52:23.297Z,12.98
2023-03-31T18:54:51.443Z,13.12
2023-03-31T18:57:19.115Z,13.15
2023-03-31T18:59:47.126Z,13.22
2023-03-31T19:02:18.222Z,13.22
2023-03-31T19:04:47.023Z,13.21
2023-03-31T19:07:15.674Z,13.09
2023-03-31T19:09:43.353Z,13.09
2023-03-31T19:12:11.914Z,13.12
2023-03-31T19:14:41.073Z,13.10
2023-03-31T19:17:08.778Z,13.08
2023-03-31T19:19:36.758Z,13.11
2023-03-31T19:22:04.160Z,13.09
2023-03-31T19:24:31.721Z,13.00
2023-03-31T19:26:59.143Z,13.04
2023-03-31T19:29:28.113Z,12.97
2023-03-31T19:31:56.183Z,12.82
2023-03-31T19:34:23.656Z,12.93
2023-03-31T19:36:51.600Z,12.98
2023-03-31T19:39:18.983Z,12.86
2023-03-31T19:41:47.060Z,12.79
2023-03-31T19:44:14.404Z,12.63
2023-03-31T19:46:41.842Z,12.52
2023-03-31T19:49:09.538Z,12.58
2023-03-31T19:51:36.948Z,12.45
2023-03-31T19:54:04.485Z,12.37
2023-03-31T19:56:32.696Z,12.39
2023-03-31T19:59:00.308Z,12.44
2023-03-31T20:01:28.203Z,12.40
2023-03-31T20:03:56.309Z,12.45
2023-03-31T20:06:26.589Z,12.45
2023-03-31T20:08:59.513Z,12.45
2023-03-31T20:11:28.470Z,12.35
2023-03-31T20:13:56.039Z,12.35
2023-03-31T20:16:26.419Z,12.37
2023-03-31T20:18:56.682Z,12.30
2023-03-31T20:21:27.304Z,12.27
2023-03-31T20:23:55.293Z,12.10
2023-03-31T20:26:25.265Z,12.11
2023-03-31T20:28:54.912Z,11.95
2023-03-31T20:31:25.218Z,11.82
2023-03-31T20:33:54.239Z,11.80
2023-03-31T20:36:29.782Z,11.82
2023-03-31T20:38:59.131Z,11.87
2023-03-31T20:41:31.073Z,11.87
2023-03-31T20:43:59.103Z,11.68
2023-03-31T20:46:27.348Z,11.61
2023-03-31T20:48:57.318Z,11.63
2023-03-31T20:51:32.486Z,11.63
2023-03-31T20:54:01.944Z,11.53
2023-03-31T20:56:37.899Z,11.52
2023-03-31T20:59:08.101Z,11.54
2023-03-31T21:01:36.552Z,11.57
2023-03-31T21:04:06.711Z,11.56
2023-03-31T21:06:41.834Z,11.57
2023-03-31T21:09:11.688Z,11.57
2023-03-31T21:11:42.425Z,11.58
2023-03-31T21:14:14.890Z,11.55
2023-03-31T21:16:42.652Z,11.51
2023-03-31T21:19:10.732Z,11.51
2023-03-31T21:21:41.103Z,11.53
2023-03-31T21:24:11.632Z,11.66
2023-03-31T21:26:39.790Z,11.60
2023-03-31T21:29:08.110Z,11.62
2023-03-31T21:31:35.621Z,11.51
2023-03-31T21:34:03.454Z,11.47
2023-03-31T21:36:31.284Z,11.36
2023-03-31T21:38:58.787Z,11.23
2023-03-31T21:41:29.928Z,11.26
2023-03-31T21:44:00.456Z,11.32
2023-03-31T21:46:31.148Z,11.35
2023-03-31T21:48:58.687Z,11.31
2023-03-31T21:51:26.636Z,11.28
2023-03-31T21:53:55.670Z,11.23
2023-03-31T21:56:25.181Z,11.25
2023-03-31T21:58:52.710Z,11.02
2023-03-31T22:01:21.759Z,11.07
2023-03-31T22:03:50.057Z,11.17
2023-03-31T22:06:17.905Z,11.21
2023-03-31T22:08:45.985Z,11.25
2023-03-31T22:11:13.912Z,11.15
2023-03-31T22:13:41.442Z,11.05
2023-03-31T22:16:21.133Z,11.09
2023-03-31T22:18:50.425Z,11.06
2023-03-31T22:21:21.701Z,11.11
2023-03-31T22:23:51.915Z,11.01
2023-03-31T22:26:19.593Z,11.10
2023-03-31T22:28:47.476Z,11.18
2023-03-31T22:31:15.391Z,11.10
2023-03-31T22:33:42.818Z,11.15
2023-03-31T22:36:10.721Z,11.06
2023-03-31T22:38:38.654Z,10.99
2023-03-31T22:41:06.856Z,10.86
2023-03-31T22:43:34.312Z,10.80
2023-03-31T22:46:06.695Z,10.68
2023-03-31T22:48:34.639Z,10.66
2023-03-31T22:51:04.700Z,10.60
2023-03-31T22:53:33.162Z,10.67
2023-03-31T22:56:10.655Z,10.49
2023-03-31T22:58:38.353Z,10.66
2023-03-31T23:01:07.067Z,10.68
2023-03-31T23:03:34.755Z,10.76
2023-03-31T23:06:05.182Z,10.62
2023-03-31T23:08:33.682Z,10.72
2023-03-31T23:11:01.879Z,10.75
2023-03-31T23:13:29.983Z,10.77
2023-03-31T23:16:12.682Z,10.62
2023-03-31T23:18:44.462Z,10.79
2023-03-31T23:21:19.426Z,10.72
2023-03-31T23:23:47.050Z,10.66
2023-03-31T23:26:15.870Z,10.62
2023-03-31T23:28:43.876Z,10.64
2023-03-31T23:31:11.303Z,10.64
2023-03-31T23:33:38.736Z,10.57
2023-03-31T23:36:07.616Z,10.39
2023-03-31T23:38:35.756Z,10.44
2023-03-31T23:41:03.713Z,10.50
2023-03-31T23:43:31.154Z,10.53
2023-03-31T23:45:58.705Z,10.48
2023-03-31T23:48:26.453Z,10.33
2023-03-31T23:50:53.807Z,10.49
2023-03-31T23:53:21.462Z,10.52
2023-03-31T23:55:56.523Z,10.52
2023-03-31T23:58:25.428Z,10.40
